createdAt,value
2018-08-10T05:26:11.380Z,99.90
2018-08-10T05:28:39.879Z,99.90
2018-08-10T05:31:08.396Z,99.90
2018-08-10T05:33:37.057Z,99.90
2018-08-10T05:36:12.329Z,99.90
2018-08-10T05:38:40.850Z,99.90
2018-08-10T05:41:09.336Z,99.90
2018-08-10T05:43:37.950Z,99.90
2018-08-10T05:46:06.461Z,99.90
2018-08-10T05:48:40.119Z,99.90
2018-08-10T05:51:13.054Z,99.90
2018-08-10T05:53:42.179Z,99.90
2018-08-10T05:56:11.194Z,99.90
2018-08-10T05:58:39.701Z,99.90
2018-08-10T06:01:08.209Z,99.90
2018-08-10T06:03:36.789Z,99.90
2018-08-10T06:06:05.270Z,99.90
2018-08-10T06:08:33.801Z,99.90
2018-08-10T06:11:02.370Z,99.90
2018-08-10T06:13:30.889Z,99.90
2018-08-10T06:15:59.401Z,99.90
2018-08-10T06:18:27.898Z,99.90
2018-08-10T06:20:56.509Z,99.90
2018-08-10T06:23:25.003Z,99.90
2018-08-10T06:25:53.512Z,99.90
2018-08-10T06:28:22.092Z,99.90
2018-08-10T06:30:53.681Z,99.70
2018-08-10T06:33:22.157Z,99.70
2018-08-10T06:35:50.648Z,99.80
2018-08-10T06:38:19.153Z,99.30
2018-08-10T06:40:47.737Z,99.10
2018-08-10T06:43:16.257Z,98.90
2018-08-10T06:45:44.745Z,98.40
2018-08-10T06:48:13.300Z,98.20
2018-08-10T06:50:41.861Z,98.00
2018-08-10T06:53:10.369Z,97.50
2018-08-10T06:55:38.905Z,97.40
2018-08-10T06:58:07.407Z,97.00
2018-08-10T07:00:36.086Z,96.90
2018-08-10T07:03:04.730Z,96.80
2018-08-10T07:05:33.213Z,96.60
2018-08-10T07:08:01.720Z,96.70
2018-08-10T07:10:30.287Z,96.40
2018-08-10T07:12:59.074Z,95.60
2018-08-10T07:15:27.606Z,95.80
2018-08-10T07:17:56.107Z,95.50
2018-08-10T07:20:24.760Z,95.30
2018-08-10T07:22:53.250Z,94.80
2018-08-10T07:25:21.730Z,94.90
2018-08-10T07:27:50.252Z,94.90
2018-08-10T07:30:18.864Z,95.10
2018-08-10T07:32:47.374Z,94.90
2018-08-10T07:35:15.882Z,94.40
2018-08-10T07:37:44.362Z,94.30
2018-08-10T07:40:12.898Z,94.20
2018-08-10T07:42:41.378Z,93.80
2018-08-10T07:45:09.871Z,93.90
2018-08-10T07:47:38.387Z,94.10
2018-08-10T07:50:06.935Z,93.60
2018-08-10T07:52:35.487Z,93.40
2018-08-10T07:55:04.071Z,93.20
2018-08-10T07:57:32.593Z,92.50
2018-08-10T08:00:01.130Z,92.30
2018-08-10T08:02:29.645Z,91.40
2018-08-10T08:04:58.191Z,91.20
2018-08-10T08:07:26.652Z,90.40
2018-08-10T08:09:55.255Z,89.70
2018-08-10T08:12:23.718Z,88.90
2018-08-10T08:14:52.219Z,88.50
2018-08-10T08:17:20.720Z,86.70
2018-08-10T08:19:49.338Z,87.60
2018-08-10T08:22:20.092Z,87.70
2018-08-10T08:24:48.607Z,87.70
2018-08-10T08:27:18.194Z,87.80
2018-08-10T08:29:46.813Z,87.90
2018-08-10T08:32:15.359Z,88.00
2018-08-10T08:34:43.914Z,87.40
2018-08-10T08:37:12.421Z,87.40
2018-08-10T08:40:46.057Z,87.10
2018-08-10T08:43:14.908Z,87.10
2018-08-10T08:45:48.567Z,86.60
2018-08-10T08:48:16.884Z,85.90
2018-08-10T08:50:47.064Z,83.90
2018-08-10T08:53:15.557Z,83.60
2018-08-10T08:55:55.450Z,81.10
2018-08-10T08:58:24.338Z,79.60
2018-08-10T09:00:52.922Z,80.00
2018-08-10T09:03:33.460Z,77.50
2018-08-10T09:06:02.474Z,76.20
2018-08-10T09:08:30.957Z,76.10
2018-08-10T09:11:00.771Z,76.10
2018-08-10T09:13:38.203Z,75.30
2018-08-10T09:16:06.732Z,74.10
2018-08-10T09:18:35.217Z,73.60
2018-08-10T09:21:03.717Z,74.20
2018-08-10T09:23:32.221Z,73.80
2018-08-10T09:26:00.731Z,73.60
2018-08-10T09:28:29.220Z,73.30
2018-08-10T09:30:57.766Z,73.90
2018-08-10T09:33:26.256Z,74.80
2018-08-10T09:35:54.767Z,74.60
2018-08-10T09:38:23.422Z,74.00
2018-08-10T09:40:51.994Z,73.10
2018-08-10T09:43:20.500Z,72.40
2018-08-10T09:45:48.999Z,72.50
2018-08-10T09:48:17.506Z,73.00
2018-08-10T09:50:46.128Z,72.90
2018-08-10T09:53:14.618Z,71.40
2018-08-10T09:55:43.127Z,71.10
2018-08-10T09:58:21.179Z,70.60
2018-08-10T10:00:54.687Z,69.30
2018-08-10T10:03:25.982Z,69.10
2018-08-10T10:05:58.108Z,68.60
2018-08-10T10:08:27.045Z,66.50
2018-08-10T10:10:55.671Z,66.80
2018-08-10T10:13:24.194Z,67.20
2018-08-10T10:15:52.714Z,65.10
2018-08-10T10:18:21.305Z,66.10
2018-08-10T10:20:49.893Z,64.30
2018-08-10T10:23:18.471Z,63.90
2018-08-10T10:25:47.013Z,63.60
2018-08-10T10:28:15.593Z,62.00
2018-08-10T10:30:44.211Z,60.70
2018-08-10T10:33:12.758Z,59.90
2018-08-10T10:35:41.330Z,59.20
2018-08-10T10:38:09.815Z,58.30
2018-08-10T10:40:38.417Z,56.80
2018-08-10T10:43:06.945Z,57.20
2018-08-10T10:45:35.442Z,57.40
2018-08-10T10:48:04.074Z,57.40
2018-08-10T10:50:32.766Z,56.40
2018-08-10T10:53:01.395Z,55.60
2018-08-10T10:55:29.971Z,55.70
2018-08-10T10:57:58.461Z,55.20
2018-08-10T11:00:27.071Z,53.00
2018-08-10T11:02:55.644Z,49.90
2018-08-10T11:05:24.171Z,49.80
2018-08-10T11:07:53.437Z,49.80
2018-08-10T11:10:22.042Z,50.20
2018-08-10T11:12:51.479Z,50.50
2018-08-10T11:15:19.983Z,49.00
2018-08-10T11:17:48.478Z,48.30
2018-08-10T11:20:17.122Z,48.90
2018-08-10T11:22:45.687Z,48.30
2018-08-10T11:25:15.004Z,48.10
2018-08-10T11:27:45.116Z,48.90
2018-08-10T11:30:14.743Z,49.30
2018-08-10T11:32:43.287Z,49.60
2018-08-10T11:35:12.078Z,49.70
2018-08-10T11:37:41.227Z,48.60
2018-08-10T11:40:12.611Z,47.90
2018-08-10T11:42:41.266Z,46.50
2018-08-10T11:45:12.469Z,48.00
2018-08-10T11:47:41.167Z,46.50
2018-08-10T11:50:09.829Z,46.10
2018-08-10T11:52:39.334Z,44.90
2018-08-10T11:55:10.019Z,45.50
2018-08-10T11:57:38.548Z,46.10
2018-08-10T12:00:08.690Z,45.70
2018-08-10T12:02:37.363Z,45.30
2018-08-10T12:05:07.412Z,44.60
2018-08-10T12:07:36.900Z,43.60
2018-08-10T12:10:06.050Z,44.20
2018-08-10T12:12:34.642Z,44.40
2018-08-10T12:15:03.254Z,44.00
2018-08-10T12:17:31.727Z,43.80
2018-08-10T12:20:00.441Z,44.60
2018-08-10T12:22:28.942Z,44.10
2018-08-10T12:24:57.586Z,44.60
2018-08-10T12:27:26.098Z,43.60
2018-08-10T12:29:54.694Z,44.20
2018-08-10T12:32:23.182Z,44.40
2018-08-10T12:34:51.730Z,43.60
2018-08-10T12:37:20.247Z,44.60
2018-08-10T12:39:49.481Z,44.00
2018-08-10T12:42:18.050Z,42.40
2018-08-10T12:44:46.567Z,42.30
2018-08-10T12:47:15.086Z,42.20
2018-08-10T12:49:43.669Z,41.60
2018-08-10T12:52:12.154Z,38.60
2018-08-10T12:54:40.628Z,38.00
2018-08-10T12:57:09.216Z,38.90
2018-08-10T12:59:37.695Z,39.30
2018-08-10T13:02:06.691Z,39.20
2018-08-10T13:04:35.199Z,40.10
2018-08-10T13:07:03.763Z,40.00
2018-08-10T13:09:32.341Z,39.80
2018-08-10T13:12:00.854Z,39.60
2018-08-10T13:14:29.351Z,38.80
2018-08-10T13:16:57.860Z,37.10
2018-08-10T13:19:26.462Z,36.50
2018-08-10T13:21:54.952Z,36.50
2018-08-10T13:24:23.430Z,36.60
2018-08-10T13:26:51.907Z,36.70
2018-08-10T13:29:20.498Z,36.30
2018-08-10T13:31:49.009Z,35.80
2018-08-10T13:34:17.514Z,34.90
2018-08-10T13:36:45.986Z,35.40
2018-08-10T13:39:14.607Z,35.40
2018-08-10T13:41:43.364Z,35.80
2018-08-10T13:44:13.802Z,35.70
2018-08-10T13:46:42.307Z,33.80
2018-08-10T13:49:10.864Z,29.70
2018-08-10T13:51:39.393Z,26.00
2018-08-10T13:54:07.882Z,23.00
2018-08-10T13:56:36.383Z,23.30
2018-08-10T13:59:04.913Z,24.80
2018-08-10T14:01:33.394Z,26.20
2018-08-10T14:04:01.952Z,25.30
2018-08-10T14:06:30.486Z,24.70
2018-08-10T14:08:58.958Z,22.10
2018-08-10T14:11:27.644Z,19.20
2018-08-10T14:13:56.187Z,18.70
2018-08-10T14:16:24.737Z,18.70
2018-08-10T14:18:53.482Z,17.50
2018-08-10T14:21:21.974Z,17.30
2018-08-10T14:23:50.495Z,17.60
2018-08-10T14:26:19.013Z,19.10
2018-08-10T14:28:47.526Z,19.50
2018-08-10T14:31:16.047Z,19.90
2018-08-10T14:33:44.560Z,17.90
2018-08-10T14:36:13.051Z,17.30
2018-08-10T14:38:41.575Z,19.10
2018-08-10T14:41:10.177Z,19.00
2018-08-10T14:43:38.645Z,16.90
2018-08-10T14:46:07.183Z,14.50
2018-08-10T14:48:35.682Z,15.10
2018-08-10T14:51:04.171Z,14.30
2018-08-10T14:53:32.725Z,13.90
2018-08-10T14:56:01.215Z,12.90
2018-08-10T14:58:29.736Z,13.20
2018-08-10T15:00:58.350Z,13.30
2018-08-10T15:03:26.879Z,15.10
2018-08-10T15:05:55.390Z,15.20
2018-08-10T15:08:23.973Z,14.90
2018-08-10T15:10:52.546Z,14.10
2018-08-10T15:13:21.051Z,13.10
2018-08-10T15:15:49.569Z,12.60
2018-08-10T15:18:18.152Z,13.10
2018-08-10T15:20:46.674Z,15.00
2018-08-10T15:23:15.192Z,15.90
2018-08-10T15:25:43.700Z,14.70
2018-08-10T15:28:12.251Z,13.50
2018-08-10T15:30:53.189Z,12.70
2018-08-10T15:33:21.682Z,13.90
2018-08-10T15:35:50.166Z,13.60
2018-08-10T15:38:18.756Z,13.40
2018-08-10T15:40:47.217Z,13.80
2018-08-10T15:43:15.698Z,14.90
2018-08-10T15:45:44.303Z,16.30
2018-08-10T15:48:12.834Z,16.00
2018-08-10T15:50:42.407Z,16.50
2018-08-10T15:53:10.973Z,18.10
2018-08-10T15:55:39.472Z,17.80
2018-08-10T15:58:07.974Z,16.50
2018-08-10T16:00:36.497Z,16.90
2018-08-10T16:03:05.028Z,17.80
2018-08-10T16:05:33.513Z,17.00
2018-08-10T16:08:02.008Z,16.90
2018-08-10T16:10:30.544Z,17.30
2018-08-10T16:12:59.021Z,16.00
2018-08-10T16:15:27.507Z,14.80
2018-08-10T16:17:56.040Z,14.70
2018-08-10T16:20:24.686Z,14.20
2018-08-10T16:22:53.203Z,14.00
2018-08-10T16:25:21.756Z,13.90
2018-08-10T16:27:50.286Z,13.50
2018-08-10T16:30:18.907Z,13.40
2018-08-10T16:32:47.450Z,13.20
2018-08-10T16:35:16.457Z,14.90
2018-08-10T16:37:46.168Z,15.70
2018-08-10T16:40:16.151Z,16.40
2018-08-10T16:42:44.744Z,16.00
2018-08-10T16:45:13.932Z,15.40
2018-08-10T16:47:42.541Z,14.70
2018-08-10T16:50:15.276Z,14.40
2018-08-10T16:52:44.298Z,15.50
2018-08-10T16:55:14.761Z,15.90
2018-08-10T16:57:44.262Z,18.70
2018-08-10T17:02:48.864Z,20.50
2018-08-10T17:05:17.379Z,22.60
2018-08-10T17:10:14.284Z,24.10
2018-08-10T17:12:44.032Z,25.50
2018-08-10T17:15:15.074Z,26.70
2018-08-10T17:17:44.470Z,27.50
2018-08-10T17:20:13.605Z,28.10
2018-08-10T17:22:42.961Z,29.00
2018-08-10T17:25:13.261Z,29.60
2018-08-10T17:27:41.843Z,30.00
2018-08-10T17:32:51.489Z,30.90
2018-08-10T17:35:20.090Z,31.40
2018-08-10T17:37:50.380Z,31.80
2018-08-10T17:40:19.057Z,32.10
2018-08-10T17:42:47.735Z,31.70
2018-08-10T17:45:18.685Z,31.90
2018-08-10T17:47:47.259Z,32.10
2018-08-10T17:50:19.495Z,32.00
2018-08-10T17:52:49.347Z,32.30
2018-08-10T17:55:18.408Z,32.40
2018-08-10T17:57:47.162Z,32.70
2018-08-10T18:00:18.666Z,32.90
2018-08-10T18:02:47.723Z,33.20
2018-08-10T18:05:17.089Z,33.60
2018-08-10T18:07:45.928Z,34.70
2018-08-10T18:10:15.274Z,34.30
2018-08-10T18:12:44.625Z,34.80
2018-08-10T18:15:16.011Z,35.10
2018-08-10T18:17:44.974Z,35.50
2018-08-10T18:20:16.641Z,35.80
2018-08-10T18:22:46.637Z,35.80
2018-08-10T18:25:16.235Z,36.10
2018-08-10T18:27:44.797Z,36.20
2018-08-10T18:30:15.866Z,36.70
2018-08-10T18:32:44.618Z,37.20
2018-08-10T18:35:13.119Z,37.40
2018-08-10T18:37:42.641Z,37.60
2018-08-10T18:40:12.960Z,37.90
2018-08-10T18:42:42.670Z,38.10
2018-08-10T18:45:12.678Z,38.30
2018-08-10T18:47:41.264Z,38.60
2018-08-10T18:50:11.674Z,38.70
2018-08-10T18:52:40.245Z,38.90
2018-08-10T18:55:10.794Z,39.00
2018-08-10T18:57:39.916Z,39.30
2018-08-10T19:00:10.985Z,44.70
2018-08-10T19:02:39.875Z,51.20
2018-08-10T19:05:14.200Z,48.30
2018-08-10T19:07:44.808Z,44.40
2018-08-10T19:10:16.270Z,44.00
2018-08-10T19:12:44.805Z,43.90
2018-08-10T19:15:13.610Z,43.90
2018-08-10T19:17:42.217Z,44.30
2018-08-10T19:20:11.642Z,44.50
2018-08-10T19:22:40.133Z,44.50
2018-08-10T19:25:10.543Z,44.20
2018-08-10T19:27:39.197Z,44.30
2018-08-10T19:30:15.518Z,44.90
2018-08-10T19:32:45.193Z,45.00
2018-08-10T19:35:13.655Z,44.90
2018-08-10T19:37:42.146Z,44.90
2018-08-10T19:40:12.743Z,44.80
2018-08-10T19:42:41.257Z,44.80
2018-08-10T19:45:11.073Z,44.80
2018-08-10T19:47:40.012Z,45.00
2018-08-10T19:50:10.016Z,45.20
2018-08-10T19:52:38.569Z,45.20
2018-08-10T19:55:09.183Z,45.20
2018-08-10T19:57:37.773Z,45.40
2018-08-10T20:00:07.617Z,45.60
2018-08-10T20:02:36.201Z,45.60
2018-08-10T20:05:06.171Z,45.90
2018-08-10T20:07:34.714Z,46.00
2018-08-10T20:10:06.517Z,46.20
2018-08-10T20:12:35.250Z,46.40
2018-08-10T20:15:04.197Z,46.40
2018-08-10T20:17:32.665Z,46.40
2018-08-10T20:20:01.237Z,46.50
2018-08-10T20:22:29.761Z,46.50
2018-08-10T20:24:58.307Z,46.40
2018-08-10T20:27:26.778Z,46.30
2018-08-10T20:29:55.341Z,46.20
2018-08-10T20:32:24.000Z,46.00
2018-08-10T20:34:52.496Z,46.10
2018-08-10T20:37:21.062Z,46.00
2018-08-10T20:39:49.546Z,45.80
2018-08-10T20:42:18.065Z,45.80
2018-08-10T20:44:46.579Z,45.80
2018-08-10T20:47:15.062Z,45.80
2018-08-10T20:49:43.555Z,46.00
2018-08-10T20:52:12.065Z,46.30
2018-08-10T20:54:47.225Z,46.60
2018-08-10T20:57:15.689Z,46.80
2018-08-10T20:59:44.267Z,47.10
2018-08-10T21:02:12.782Z,47.50
2018-08-10T21:04:41.268Z,47.60
2018-08-10T21:07:09.776Z,47.60
2018-08-10T21:09:38.309Z,47.80
2018-08-10T21:12:06.809Z,48.10
2018-08-10T21:14:35.395Z,48.10
2018-08-10T21:17:03.859Z,48.10
2018-08-10T21:19:32.481Z,48.10
2018-08-10T21:22:00.968Z,48.10
2018-08-10T21:24:29.433Z,48.00
2018-08-10T21:26:58.074Z,47.80
2018-08-10T21:29:26.670Z,47.70
2018-08-10T21:31:55.268Z,47.60
2018-08-10T21:34:24.701Z,47.40
2018-08-10T21:36:53.236Z,48.00
2018-08-10T21:39:21.831Z,47.20
2018-08-10T21:41:50.335Z,47.00
2018-08-10T21:44:18.886Z,47.00
2018-08-10T21:46:47.432Z,46.90
2018-08-10T21:49:16.017Z,47.00
2018-08-10T21:51:44.585Z,47.00
2018-08-10T21:54:13.074Z,47.00
2018-08-10T21:56:41.572Z,47.10
2018-08-10T21:59:10.160Z,47.30
2018-08-10T22:01:38.715Z,47.00
2018-08-10T22:04:07.272Z,46.90
2018-08-10T22:06:35.760Z,47.00
2018-08-10T22:09:05.289Z,47.00
2018-08-10T22:11:33.783Z,47.20
2018-08-10T22:14:07.534Z,47.30
2018-08-10T22:16:41.319Z,47.10
